sensor_id;sensor_type;location;lat;lon;timestamp;temperature;humidity
39677;DHT22;27789;50.840;4.386;2023-05-19T00:00:59;12.30;99.90
39677;DHT22;27789;50.840;4.386;2023-05-19T00:03:25;12.30;99.90
39677;DHT22;27789;50.840;4.386;2023-05-19T00:05:53;12.30;99.90
39677;DHT22;27789;50.840;4.386;2023-05-19T00:08:21;12.30;99.90
39677;DHT22;27789;50.840;4.386;2023-05-19T00:10:48;12.30;99.90
39677;DHT22;27789;50.840;4.386;2023-05-19T00:13:13;12.30;99.90
39677;DHT22;27789;50.840;4.386;2023-05-19T00:15:39;12.20;99.90
39677;DHT22;27789;50.840;4.386;2023-05-19T00:18:04;12.20;99.90
39677;DHT22;27789;50.840;4.386;2023-05-19T00:20:33;12.20;99.90
39677;DHT22;27789;50.840;4.386;2023-05-19T00:22:58;12.20;99.90
39677;DHT22;27789;50.840;4.386;2023-05-19T00:25:24;12.10;99.90
39677;DHT22;27789;50.840;4.386;2023-05-19T00:27:50;12.10;99.90
39677;DHT22;27789;50.840;4.386;2023-05-19T00:30:15;12.10;99.90
39677;DHT22;27789;50.840;4.386;2023-05-19T00:32:41;12.10;99.90
39677;DHT22;27789;50.840;4.386;2023-05-19T00:35:06;12.10;99.90
39677;DHT22;27789;50.840;4.386;2023-05-19T00:37:32;12.00;99.90
39677;DHT22;27789;50.840;4.386;2023-05-19T00:39:57;12.00;99.90
39677;DHT22;27789;50.840;4.386;2023-05-19T00:42:24;12.00;99.90
39677;DHT22;27789;50.840;4.386;2023-05-19T00:44:50;11.90;99.90
39677;DHT22;27789;50.840;4.386;2023-05-19T00:47:15;11.90;99.90
39677;DHT22;27789;50.840;4.386;2023-05-19T00:49:41;11.90;99.90
39677;DHT22;27789;50.840;4.386;2023-05-19T00:52:06;11.90;99.90
39677;DHT22;27789;50.840;4.386;2023-05-19T00:54:32;11.90;99.90
39677;DHT22;27789;50.840;4.386;2023-05-19T00:56:58;11.90;99.90
39677;DHT22;27789;50.840;4.386;2023-05-19T00:59:24;11.80;99.90
39677;DHT22;27789;50.840;4.386;2023-05-19T01:01:49;11.80;99.90
39677;DHT22;27789;50.840;4.386;2023-05-19T01:04:17;11.80;99.90
39677;DHT22;27789;50.840;4.386;2023-05-19T01:06:43;11.80;99.90
39677;DHT22;27789;50.840;4.386;2023-05-19T01:09:08;11.60;99.90
39677;DHT22;27789;50.840;4.386;2023-05-19T01:11:34;11.70;99.90
39677;DHT22;27789;50.840;4.386;2023-05-19T01:13:59;11.70;99.90
39677;DHT22;27789;50.840;4.386;2023-05-19T01:16:30;11.70;99.90
39677;DHT22;27789;50.840;4.386;2023-05-19T01:24:15;11.60;99.90
39677;DHT22;27789;50.840;4.386;2023-05-19T01:31:48;11.50;99.90
39677;DHT22;27789;50.840;4.386;2023-05-19T01:34:15;11.50;99.90
39677;DHT22;27789;50.840;4.386;2023-05-19T01:36:41;11.50;99.90
39677;DHT22;27789;50.840;4.386;2023-05-19T01:39:09;11.50;99.90
39677;DHT22;27789;50.840;4.386;2023-05-19T01:41:34;11.40;99.90
39677;DHT22;27789;50.840;4.386;2023-05-19T01:44:01;11.40;99.90
39677;DHT22;27789;50.840;4.386;2023-05-19T01:46:26;11.40;99.90
39677;DHT22;27789;50.840;4.386;2023-05-19T01:48:52;11.40;99.90
39677;DHT22;27789;50.840;4.386;2023-05-19T01:51:17;11.40;99.90
39677;DHT22;27789;50.840;4.386;2023-05-19T01:53:43;11.40;99.90
39677;DHT22;27789;50.840;4.386;2023-05-19T01:56:08;11.40;99.90
39677;DHT22;27789;50.840;4.386;2023-05-19T02:08:41;11.20;99.90
39677;DHT22;27789;50.840;4.386;2023-05-19T02:11:13;11.20;99.90
39677;DHT22;27789;50.840;4.386;2023-05-19T02:13:39;11.10;99.90
39677;DHT22;27789;50.840;4.386;2023-05-19T02:16:06;11.20;99.90
39677;DHT22;27789;50.840;4.386;2023-05-19T02:18:32;11.10;99.90
39677;DHT22;27789;50.840;4.386;2023-05-19T02:20:58;11.10;99.90
39677;DHT22;27789;50.840;4.386;2023-05-19T02:23:23;11.00;99.90
39677;DHT22;27789;50.840;4.386;2023-05-19T02:25:49;11.00;99.90
39677;DHT22;27789;50.840;4.386;2023-05-19T02:28:14;11.10;99.90
39677;DHT22;27789;50.840;4.386;2023-05-19T02:30:40;11.10;99.90
39677;DHT22;27789;50.840;4.386;2023-05-19T02:33:06;11.00;99.90
39677;DHT22;27789;50.840;4.386;2023-05-19T02:35:31;11.00;99.90
39677;DHT22;27789;50.840;4.386;2023-05-19T02:37:58;10.90;99.90
39677;DHT22;27789;50.840;4.386;2023-05-19T02:40:23;10.90;99.90
39677;DHT22;27789;50.840;4.386;2023-05-19T02:42:49;10.80;99.90
39677;DHT22;27789;50.840;4.386;2023-05-19T02:45:14;10.80;99.90
39677;DHT22;27789;50.840;4.386;2023-05-19T02:47:40;10.80;99.90
39677;DHT22;27789;50.840;4.386;2023-05-19T02:50:06;10.80;99.90
39677;DHT22;27789;50.840;4.386;2023-05-19T02:52:31;10.80;99.90
39677;DHT22;27789;50.840;4.386;2023-05-19T02:54:57;10.80;99.90
39677;DHT22;27789;50.840;4.386;2023-05-19T02:57:23;10.70;99.90
39677;DHT22;27789;50.840;4.386;2023-05-19T02:59:49;10.70;99.90
39677;DHT22;27789;50.840;4.386;2023-05-19T03:02:15;10.70;99.90
39677;DHT22;27789;50.840;4.386;2023-05-19T03:04:40;10.70;99.90
39677;DHT22;27789;50.840;4.386;2023-05-19T03:07:07;10.80;99.90
39677;DHT22;27789;50.840;4.386;2023-05-19T03:09:37;10.70;99.90
39677;DHT22;27789;50.840;4.386;2023-05-19T03:12:02;10.70;99.90
39677;DHT22;27789;50.840;4.386;2023-05-19T03:14:29;10.60;99.90
39677;DHT22;27789;50.840;4.386;2023-05-19T03:16:54;10.60;99.90
39677;DHT22;27789;50.840;4.386;2023-05-19T03:19:24;10.60;99.90
39677;DHT22;27789;50.840;4.386;2023-05-19T03:21:49;10.50;99.90
39677;DHT22;27789;50.840;4.386;2023-05-19T03:24:15;10.50;99.90
39677;DHT22;27789;50.840;4.386;2023-05-19T03:26:40;10.50;99.90
39677;DHT22;27789;50.840;4.386;2023-05-19T03:29:06;10.40;99.90
39677;DHT22;27789;50.840;4.386;2023-05-19T03:31:32;10.40;99.90
39677;DHT22;27789;50.840;4.386;2023-05-19T03:33:57;10.40;99.90
39677;DHT22;27789;50.840;4.386;2023-05-19T03:36:23;10.40;99.90
39677;DHT22;27789;50.840;4.386;2023-05-19T03:38:48;10.40;99.90
39677;DHT22;27789;50.840;4.386;2023-05-19T03:41:14;10.40;99.90
39677;DHT22;27789;50.840;4.386;2023-05-19T03:43:39;10.30;99.90
39677;DHT22;27789;50.840;4.386;2023-05-19T03:46:05;10.40;99.90
39677;DHT22;27789;50.840;4.386;2023-05-19T03:48:30;10.40;99.90
39677;DHT22;27789;50.840;4.386;2023-05-19T03:50:56;10.40;99.90
39677;DHT22;27789;50.840;4.386;2023-05-19T03:53:22;10.40;99.90
39677;DHT22;27789;50.840;4.386;2023-05-19T03:55:48;10.40;99.90
39677;DHT22;27789;50.840;4.386;2023-05-19T03:58:14;10.40;99.90
39677;DHT22;27789;50.840;4.386;2023-05-19T04:00:40;10.30;99.90
39677;DHT22;27789;50.840;4.386;2023-05-19T04:03:06;10.30;99.90
39677;DHT22;27789;50.840;4.386;2023-05-19T04:05:32;10.30;99.90
39677;DHT22;27789;50.840;4.386;2023-05-19T04:07:58;10.20;99.90
39677;DHT22;27789;50.840;4.386;2023-05-19T04:10:24;10.30;99.90
39677;DHT22;27789;50.840;4.386;2023-05-19T04:12:49;10.30;99.90
39677;DHT22;27789;50.840;4.386;2023-05-19T04:15:15;10.30;99.90
39677;DHT22;27789;50.840;4.386;2023-05-19T04:17:40;10.30;99.90
39677;DHT22;27789;50.840;4.386;2023-05-19T04:20:06;10.20;99.90
39677;DHT22;27789;50.840;4.386;2023-05-19T04:22:31;10.20;99.90
39677;DHT22;27789;50.840;4.386;2023-05-19T04:24:57;10.30;99.90
39677;DHT22;27789;50.840;4.386;2023-05-19T04:27:23;10.20;99.90
39677;DHT22;27789;50.840;4.386;2023-05-19T04:29:50;10.30;99.90
39677;DHT22;27789;50.840;4.386;2023-05-19T04:32:15;10.30;99.90
39677;DHT22;27789;50.840;4.386;2023-05-19T04:34:44;10.40;99.90
39677;DHT22;27789;50.840;4.386;2023-05-19T04:37:13;10.30;99.90
39677;DHT22;27789;50.840;4.386;2023-05-19T04:39:40;10.30;99.90
39677;DHT22;27789;50.840;4.386;2023-05-19T04:42:08;10.30;99.90
39677;DHT22;27789;50.840;4.386;2023-05-19T04:44:35;10.20;99.90
39677;DHT22;27789;50.840;4.386;2023-05-19T04:47:02;10.20;99.90
39677;DHT22;27789;50.840;4.386;2023-05-19T04:49:30;10.20;99.90
39677;DHT22;27789;50.840;4.386;2023-05-19T04:51:56;10.20;99.90
39677;DHT22;27789;50.840;4.386;2023-05-19T04:54:22;10.20;99.90
39677;DHT22;27789;50.840;4.386;2023-05-19T04:56:47;10.20;99.90
39677;DHT22;27789;50.840;4.386;2023-05-19T04:59:13;10.20;99.90
39677;DHT22;27789;50.840;4.386;2023-05-19T05:01:38;10.20;99.90
39677;DHT22;27789;50.840;4.386;2023-05-19T05:04:05;10.20;99.90
39677;DHT22;27789;50.840;4.386;2023-05-19T05:06:31;10.20;99.90
39677;DHT22;27789;50.840;4.386;2023-05-19T05:08:57;10.20;99.90
39677;DHT22;27789;50.840;4.386;2023-05-19T05:11:24;10.20;99.90
39677;DHT22;27789;50.840;4.386;2023-05-19T05:13:50;10.20;99.90
39677;DHT22;27789;50.840;4.386;2023-05-19T05:16:15;10.20;99.90
39677;DHT22;27789;50.840;4.386;2023-05-19T05:18:41;10.20;99.90
39677;DHT22;27789;50.840;4.386;2023-05-19T05:21:07;10.20;99.90
39677;DHT22;27789;50.840;4.386;2023-05-19T05:23:32;10.30;99.90
39677;DHT22;27789;50.840;4.386;2023-05-19T05:25:58;10.30;99.90
39677;DHT22;27789;50.840;4.386;2023-05-19T05:28:24;10.30;99.90
39677;DHT22;27789;50.840;4.386;2023-05-19T05:30:49;10.30;99.90
39677;DHT22;27789;50.840;4.386;2023-05-19T05:33:15;10.30;99.90
39677;DHT22;27789;50.840;4.386;2023-05-19T05:35:41;10.30;99.90
39677;DHT22;27789;50.840;4.386;2023-05-19T05:38:06;10.40;99.90
39677;DHT22;27789;50.840;4.386;2023-05-19T05:40:32;10.50;99.90
39677;DHT22;27789;50.840;4.386;2023-05-19T05:42:58;10.50;99.90
39677;DHT22;27789;50.840;4.386;2023-05-19T05:45:23;10.60;99.90
39677;DHT22;27789;50.840;4.386;2023-05-19T05:47:49;10.60;99.90
39677;DHT22;27789;50.840;4.386;2023-05-19T05:50:15;10.70;99.90
39677;DHT22;27789;50.840;4.386;2023-05-19T05:52:40;10.70;99.90
39677;DHT22;27789;50.840;4.386;2023-05-19T05:55:08;10.80;99.90
39677;DHT22;27789;50.840;4.386;2023-05-19T05:57:34;10.80;99.90
39677;DHT22;27789;50.840;4.386;2023-05-19T06:00:00;10.80;99.90
39677;DHT22;27789;50.840;4.386;2023-05-19T06:02:26;10.90;99.90
39677;DHT22;27789;50.840;4.386;2023-05-19T06:04:52;11.00;99.90
39677;DHT22;27789;50.840;4.386;2023-05-19T06:07:18;11.00;99.90
39677;DHT22;27789;50.840;4.386;2023-05-19T06:09:44;11.10;99.90
39677;DHT22;27789;50.840;4.386;2023-05-19T06:12:09;11.10;99.90
39677;DHT22;27789;50.840;4.386;2023-05-19T06:14:35;11.20;99.90
39677;DHT22;27789;50.840;4.386;2023-05-19T06:17:01;11.20;99.90
39677;DHT22;27789;50.840;4.386;2023-05-19T06:19:26;11.30;99.90
39677;DHT22;27789;50.840;4.386;2023-05-19T06:21:52;11.40;99.90
39677;DHT22;27789;50.840;4.386;2023-05-19T06:24:17;11.50;99.90
39677;DHT22;27789;50.840;4.386;2023-05-19T06:26:43;11.50;99.90
39677;DHT22;27789;50.840;4.386;2023-05-19T06:29:08;11.50;99.90
39677;DHT22;27789;50.840;4.386;2023-05-19T06:31:34;11.60;99.90
39677;DHT22;27789;50.840;4.386;2023-05-19T06:33:59;11.60;99.90
39677;DHT22;27789;50.840;4.386;2023-05-19T06:36:25;11.60;99.90
39677;DHT22;27789;50.840;4.386;2023-05-19T06:38:50;11.70;99.90
39677;DHT22;27789;50.840;4.386;2023-05-19T06:41:16;11.70;99.90
39677;DHT22;27789;50.840;4.386;2023-05-19T06:43:41;11.70;99.90
39677;DHT22;27789;50.840;4.386;2023-05-19T06:46:07;11.70;99.90
39677;DHT22;27789;50.840;4.386;2023-05-19T06:48:32;11.80;99.90
39677;DHT22;27789;50.840;4.386;2023-05-19T06:50:58;11.90;99.90
39677;DHT22;27789;50.840;4.386;2023-05-19T06:53:23;12.00;99.90
39677;DHT22;27789;50.840;4.386;2023-05-19T06:55:49;12.00;99.90
39677;DHT22;27789;50.840;4.386;2023-05-19T06:58:15;12.10;99.90
39677;DHT22;27789;50.840;4.386;2023-05-19T07:00:40;12.10;99.90
39677;DHT22;27789;50.840;4.386;2023-05-19T07:03:06;12.20;99.90
39677;DHT22;27789;50.840;4.386;2023-05-19T07:05:31;12.20;99.90
39677;DHT22;27789;50.840;4.386;2023-05-19T07:07:57;12.30;99.90
39677;DHT22;27789;50.840;4.386;2023-05-19T07:10:23;12.40;99.90
39677;DHT22;27789;50.840;4.386;2023-05-19T07:12:48;12.40;99.90
39677;DHT22;27789;50.840;4.386;2023-05-19T07:15:14;12.40;99.90
39677;DHT22;27789;50.840;4.386;2023-05-19T07:17:39;12.50;99.90
39677;DHT22;27789;50.840;4.386;2023-05-19T07:20:05;12.60;99.90
39677;DHT22;27789;50.840;4.386;2023-05-19T07:22:31;12.70;99.90
39677;DHT22;27789;50.840;4.386;2023-05-19T07:24:59;12.80;99.90
39677;DHT22;27789;50.840;4.386;2023-05-19T07:27:25;12.90;99.90
39677;DHT22;27789;50.840;4.386;2023-05-19T07:29:50;13.00;99.90
39677;DHT22;27789;50.840;4.386;2023-05-19T07:32:16;13.10;99.90
39677;DHT22;27789;50.840;4.386;2023-05-19T07:34:41;13.20;99.90
39677;DHT22;27789;50.840;4.386;2023-05-19T07:37:07;13.30;99.90
39677;DHT22;27789;50.840;4.386;2023-05-19T07:39:32;13.30;99.90
39677;DHT22;27789;50.840;4.386;2023-05-19T07:41:58;13.40;99.90
39677;DHT22;27789;50.840;4.386;2023-05-19T07:44:23;13.50;99.90
39677;DHT22;27789;50.840;4.386;2023-05-19T07:46:51;13.50;99.90
39677;DHT22;27789;50.840;4.386;2023-05-19T07:49:17;13.60;99.90
39677;DHT22;27789;50.840;4.386;2023-05-19T07:51:42;13.70;99.90
39677;DHT22;27789;50.840;4.386;2023-05-19T07:54:08;13.70;99.90
39677;DHT22;27789;50.840;4.386;2023-05-19T07:56:33;13.80;99.90
39677;DHT22;27789;50.840;4.386;2023-05-19T07:58:59;13.80;99.90
39677;DHT22;27789;50.840;4.386;2023-05-19T08:01:24;13.90;99.90
39677;DHT22;27789;50.840;4.386;2023-05-19T08:03:50;14.00;99.90
39677;DHT22;27789;50.840;4.386;2023-05-19T08:06:15;14.10;99.90
39677;DHT22;27789;50.840;4.386;2023-05-19T08:08:41;14.20;99.90
39677;DHT22;27789;50.840;4.386;2023-05-19T08:11:06;14.20;99.90
39677;DHT22;27789;50.840;4.386;2023-05-19T08:13:32;14.20;99.90
39677;DHT22;27789;50.840;4.386;2023-05-19T08:15:59;14.40;99.90
39677;DHT22;27789;50.840;4.386;2023-05-19T08:18:24;14.50;99.90
39677;DHT22;27789;50.840;4.386;2023-05-19T08:20:50;14.50;99.90
39677;DHT22;27789;50.840;4.386;2023-05-19T08:23:16;14.60;99.90
39677;DHT22;27789;50.840;4.386;2023-05-19T08:25:42;14.70;99.90
39677;DHT22;27789;50.840;4.386;2023-05-19T08:28:08;14.80;99.90
39677;DHT22;27789;50.840;4.386;2023-05-19T08:30:33;14.90;99.90
39677;DHT22;27789;50.840;4.386;2023-05-19T08:32:59;15.00;99.90
39677;DHT22;27789;50.840;4.386;2023-05-19T08:35:24;15.10;99.90
39677;DHT22;27789;50.840;4.386;2023-05-19T08:37:50;15.20;99.90
39677;DHT22;27789;50.840;4.386;2023-05-19T08:40:16;15.30;99.90
39677;DHT22;27789;50.840;4.386;2023-05-19T08:42:43;15.40;99.90
39677;DHT22;27789;50.840;4.386;2023-05-19T08:45:09;15.40;99.90
39677;DHT22;27789;50.840;4.386;2023-05-19T08:47:35;15.50;99.90
39677;DHT22;27789;50.840;4.386;2023-05-19T08:50:04;15.40;99.90
39677;DHT22;27789;50.840;4.386;2023-05-19T08:57:25;16.00;99.90
39677;DHT22;27789;50.840;4.386;2023-05-19T08:59:51;16.10;99.90
39677;DHT22;27789;50.840;4.386;2023-05-19T09:02:18;16.10;99.90
39677;DHT22;27789;50.840;4.386;2023-05-19T09:04:44;16.30;99.90
39677;DHT22;27789;50.840;4.386;2023-05-19T09:07:12;16.30;99.80
39677;DHT22;27789;50.840;4.386;2023-05-19T09:09:38;16.40;99.90
39677;DHT22;27789;50.840;4.386;2023-05-19T09:12:08;16.40;99.90
39677;DHT22;27789;50.840;4.386;2023-05-19T09:14:34;16.50;99.80
39677;DHT22;27789;50.840;4.386;2023-05-19T09:17:00;16.60;99.60
39677;DHT22;27789;50.840;4.386;2023-05-19T09:19:29;16.60;99.40
39677;DHT22;27789;50.840;4.386;2023-05-19T09:21:58;16.70;99.50
39677;DHT22;27789;50.840;4.386;2023-05-19T09:24:25;16.90;99.50
39677;DHT22;27789;50.840;4.386;2023-05-19T09:26:52;16.90;99.10
39677;DHT22;27789;50.840;4.386;2023-05-19T09:29:19;16.90;99.90
39677;DHT22;27789;50.840;4.386;2023-05-19T09:31:51;17.00;99.60
39677;DHT22;27789;50.840;4.386;2023-05-19T09:34:18;17.10;98.80
39677;DHT22;27789;50.840;4.386;2023-05-19T09:36:45;17.20;98.90
39677;DHT22;27789;50.840;4.386;2023-05-19T09:39:17;17.30;99.80
39677;DHT22;27789;50.840;4.386;2023-05-19T09:41:42;17.40;98.60
39677;DHT22;27789;50.840;4.386;2023-05-19T09:44:12;17.50;98.70
39677;DHT22;27789;50.840;4.386;2023-05-19T09:46:37;17.50;98.10
39677;DHT22;27789;50.840;4.386;2023-05-19T09:49:09;17.50;98.40
39677;DHT22;27789;50.840;4.386;2023-05-19T09:51:35;17.60;98.60
39677;DHT22;27789;50.840;4.386;2023-05-19T09:54:02;17.70;98.00
39677;DHT22;27789;50.840;4.386;2023-05-19T09:56:34;17.80;97.70
39677;DHT22;27789;50.840;4.386;2023-05-19T09:59:01;17.90;97.10
39677;DHT22;27789;50.840;4.386;2023-05-19T10:01:27;18.00;96.70
39677;DHT22;27789;50.840;4.386;2023-05-19T10:03:53;18.10;96.50
39677;DHT22;27789;50.840;4.386;2023-05-19T10:06:19;18.10;95.80
39677;DHT22;27789;50.840;4.386;2023-05-19T10:08:46;18.20;95.80
39677;DHT22;27789;50.840;4.386;2023-05-19T10:11:12;18.30;96.00
39677;DHT22;27789;50.840;4.386;2023-05-19T10:13:39;18.30;96.20
39677;DHT22;27789;50.840;4.386;2023-05-19T10:16:05;18.50;96.60
39677;DHT22;27789;50.840;4.386;2023-05-19T10:18:30;18.60;96.20
39677;DHT22;27789;50.840;4.386;2023-05-19T10:20:57;18.80;96.00
39677;DHT22;27789;50.840;4.386;2023-05-19T10:23:23;19.00;95.80
39677;DHT22;27789;50.840;4.386;2023-05-19T10:25:50;19.20;96.20
39677;DHT22;27789;50.840;4.386;2023-05-19T10:28:16;19.20;95.90
39677;DHT22;27789;50.840;4.386;2023-05-19T10:30:46;19.10;95.90
39677;DHT22;27789;50.840;4.386;2023-05-19T10:33:13;19.30;96.00
39677;DHT22;27789;50.840;4.386;2023-05-19T10:41:01;19.80;95.50
39677;DHT22;27789;50.840;4.386;2023-05-19T10:45:54;20.00;95.00
39677;DHT22;27789;50.840;4.386;2023-05-19T10:48:21;20.20;95.20
39677;DHT22;27789;50.840;4.386;2023-05-19T10:50:47;20.40;94.20
39677;DHT22;27789;50.840;4.386;2023-05-19T10:53:16;20.60;94.70
39677;DHT22;27789;50.840;4.386;2023-05-19T10:55:53;20.70;94.10
39677;DHT22;27789;50.840;4.386;2023-05-19T11:00:59;20.80;93.70
39677;DHT22;27789;50.840;4.386;2023-05-19T11:03:25;20.90;93.70
39677;DHT22;27789;50.840;4.386;2023-05-19T11:06:15;21.00;93.80
39677;DHT22;27789;50.840;4.386;2023-05-19T11:08:38;21.30;93.60
39677;DHT22;27789;50.840;4.386;2023-05-19T11:11:11;21.50;93.40
39677;DHT22;27789;50.840;4.386;2023-05-19T11:13:37;21.60;93.20
39677;DHT22;27789;50.840;4.386;2023-05-19T11:16:08;21.80;93.80
39677;DHT22;27789;50.840;4.386;2023-05-19T11:18:34;22.20;93.30
39677;DHT22;27789;50.840;4.386;2023-05-19T11:21:00;23.00;92.00
39677;DHT22;27789;50.840;4.386;2023-05-19T11:23:26;23.10;91.70
39677;DHT22;27789;50.840;4.386;2023-05-19T11:25:52;23.60;91.70
39677;DHT22;27789;50.840;4.386;2023-05-19T11:28:21;24.60;91.10
39677;DHT22;27789;50.840;4.386;2023-05-19T11:30:52;25.40;90.60
39677;DHT22;27789;50.840;4.386;2023-05-19T11:33:18;26.10;88.70
39677;DHT22;27789;50.840;4.386;2023-05-19T11:35:45;26.60;88.10
39677;DHT22;27789;50.840;4.386;2023-05-19T11:38:11;27.10;87.30
39677;DHT22;27789;50.840;4.386;2023-05-19T11:40:37;27.50;86.60
39677;DHT22;27789;50.840;4.386;2023-05-19T11:43:03;27.70;85.70
39677;DHT22;27789;50.840;4.386;2023-05-19T11:45:30;27.90;86.80
39677;DHT22;27789;50.840;4.386;2023-05-19T11:47:56;28.10;86.00
39677;DHT22;27789;50.840;4.386;2023-05-19T11:50:22;28.10;86.00
39677;DHT22;27789;50.840;4.386;2023-05-19T11:52:49;27.90;85.00
39677;DHT22;27789;50.840;4.386;2023-05-19T11:55:18;27.90;84.50
39677;DHT22;27789;50.840;4.386;2023-05-19T12:00:24;28.20;85.00
39677;DHT22;27789;50.840;4.386;2023-05-19T12:02:50;28.60;83.60
39677;DHT22;27789;50.840;4.386;2023-05-19T12:07:53;26.90;85.70
39677;DHT22;27789;50.840;4.386;2023-05-19T12:12:55;28.00;84.00
39677;DHT22;27789;50.840;4.386;2023-05-19T12:15:22;28.50;85.20
39677;DHT22;27789;50.840;4.386;2023-05-19T12:17:48;28.80;83.80
39677;DHT22;27789;50.840;4.386;2023-05-19T12:20:14;29.20;83.20
39677;DHT22;27789;50.840;4.386;2023-05-19T12:22:40;29.30;84.30
39677;DHT22;27789;50.840;4.386;2023-05-19T12:25:05;29.20;83.00
39677;DHT22;27789;50.840;4.386;2023-05-19T12:27:33;29.30;83.10
39677;DHT22;27789;50.840;4.386;2023-05-19T12:29:59;29.40;82.30
39677;DHT22;27789;50.840;4.386;2023-05-19T12:32:27;29.30;81.90
39677;DHT22;27789;50.840;4.386;2023-05-19T12:34:56;29.50;82.00
39677;DHT22;27789;50.840;4.386;2023-05-19T12:37:23;29.90;82.00
39677;DHT22;27789;50.840;4.386;2023-05-19T12:39:50;29.90;81.20
39677;DHT22;27789;50.840;4.386;2023-05-19T12:42:15;30.10;80.60
39677;DHT22;27789;50.840;4.386;2023-05-19T12:44:41;30.30;79.90
39677;DHT22;27789;50.840;4.386;2023-05-19T12:47:08;30.40;80.30
39677;DHT22;27789;50.840;4.386;2023-05-19T12:49:33;30.30;82.00
39677;DHT22;27789;50.840;4.386;2023-05-19T12:52:02;30.30;81.10
39677;DHT22;27789;50.840;4.386;2023-05-19T12:54:31;30.30;81.30
39677;DHT22;27789;50.840;4.386;2023-05-19T12:56:57;30.30;80.60
39677;DHT22;27789;50.840;4.386;2023-05-19T12:59:23;30.10;80.90
39677;DHT22;27789;50.840;4.386;2023-05-19T13:01:58;29.60;80.70
39677;DHT22;27789;50.840;4.386;2023-05-19T13:04:24;29.80;80.80
39677;DHT22;27789;50.840;4.386;2023-05-19T13:06:51;29.90;80.50
39677;DHT22;27789;50.840;4.386;2023-05-19T13:09:20;30.00;79.70
39677;DHT22;27789;50.840;4.386;2023-05-19T13:11:45;29.50;80.10
39677;DHT22;27789;50.840;4.386;2023-05-19T13:14:16;29.10;80.10
39677;DHT22;27789;50.840;4.386;2023-05-19T13:16:43;28.50;80.70
39677;DHT22;27789;50.840;4.386;2023-05-19T13:19:11;28.10;81.00
39677;DHT22;27789;50.840;4.386;2023-05-19T13:21:37;28.00;82.20
39677;DHT22;27789;50.840;4.386;2023-05-19T13:24:02;28.10;81.20
39677;DHT22;27789;50.840;4.386;2023-05-19T13:26:29;28.40;81.20
39677;DHT22;27789;50.840;4.386;2023-05-19T13:28:54;28.70;81.00
39677;DHT22;27789;50.840;4.386;2023-05-19T13:31:20;28.70;79.90
39677;DHT22;27789;50.840;4.386;2023-05-19T13:33:45;28.60;80.00
39677;DHT22;27789;50.840;4.386;2023-05-19T13:36:11;28.50;79.90
39677;DHT22;27789;50.840;4.386;2023-05-19T13:38:36;28.20;81.60
39677;DHT22;27789;50.840;4.386;2023-05-19T13:41:02;28.30;79.60
39677;DHT22;27789;50.840;4.386;2023-05-19T13:43:27;28.30;80.40
39677;DHT22;27789;50.840;4.386;2023-05-19T13:45:53;28.20;80.50
39677;DHT22;27789;50.840;4.386;2023-05-19T13:48:18;27.70;81.30
39677;DHT22;27789;50.840;4.386;2023-05-19T13:50:44;27.50;82.00
39677;DHT22;27789;50.840;4.386;2023-05-19T13:53:09;27.40;81.90
39677;DHT22;27789;50.840;4.386;2023-05-19T13:55:35;27.00;81.70
39677;DHT22;27789;50.840;4.386;2023-05-19T13:58:01;26.60;82.20
39677;DHT22;27789;50.840;4.386;2023-05-19T14:00:28;26.10;82.90
39677;DHT22;27789;50.840;4.386;2023-05-19T14:02:54;25.80;82.70
39677;DHT22;27789;50.840;4.386;2023-05-19T14:05:20;25.40;83.20
39677;DHT22;27789;50.840;4.386;2023-05-19T14:07:46;25.10;83.50
39677;DHT22;27789;50.840;4.386;2023-05-19T14:10:11;24.80;83.50
39677;DHT22;27789;50.840;4.386;2023-05-19T14:12:37;24.40;84.20
39677;DHT22;27789;50.840;4.386;2023-05-19T14:15:03;24.10;85.20
39677;DHT22;27789;50.840;4.386;2023-05-19T14:17:29;24.00;85.30
39677;DHT22;27789;50.840;4.386;2023-05-19T14:19:55;23.90;85.80
39677;DHT22;27789;50.840;4.386;2023-05-19T14:22:20;23.70;85.50
39677;DHT22;27789;50.840;4.386;2023-05-19T14:24:46;23.50;85.20
39677;DHT22;27789;50.840;4.386;2023-05-19T14:27:11;23.50;85.90
39677;DHT22;27789;50.840;4.386;2023-05-19T14:29:37;23.30;86.10
39677;DHT22;27789;50.840;4.386;2023-05-19T14:32:02;23.40;87.30
39677;DHT22;27789;50.840;4.386;2023-05-19T14:34:29;23.40;87.30
39677;DHT22;27789;50.840;4.386;2023-05-19T14:36:55;23.50;85.70
39677;DHT22;27789;50.840;4.386;2023-05-19T14:39:20;23.50;86.00
39677;DHT22;27789;50.840;4.386;2023-05-19T14:41:46;23.50;86.20
39677;DHT22;27789;50.840;4.386;2023-05-19T14:44:13;23.60;85.80
39677;DHT22;27789;50.840;4.386;2023-05-19T14:46:39;23.70;85.80
39677;DHT22;27789;50.840;4.386;2023-05-19T14:49:04;23.80;86.40
39677;DHT22;27789;50.840;4.386;2023-05-19T14:51:30;23.80;86.10
39677;DHT22;27789;50.840;4.386;2023-05-19T14:53:56;23.90;86.50
39677;DHT22;27789;50.840;4.386;2023-05-19T14:56:21;23.80;86.80
39677;DHT22;27789;50.840;4.386;2023-05-19T14:58:47;23.90;85.50
39677;DHT22;27789;50.840;4.386;2023-05-19T15:01:12;23.80;86.60
39677;DHT22;27789;50.840;4.386;2023-05-19T15:03:38;23.70;85.90
39677;DHT22;27789;50.840;4.386;2023-05-19T15:06:07;23.70;85.90
39677;DHT22;27789;50.840;4.386;2023-05-19T15:08:32;23.70;86.00
39677;DHT22;27789;50.840;4.386;2023-05-19T15:10:58;23.70;85.90
39677;DHT22;27789;50.840;4.386;2023-05-19T15:13:23;23.70;85.00
39677;DHT22;27789;50.840;4.386;2023-05-19T15:15:52;23.70;86.30
39677;DHT22;27789;50.840;4.386;2023-05-19T15:18:17;23.70;86.40
39677;DHT22;27789;50.840;4.386;2023-05-19T15:20:43;23.60;85.30
39677;DHT22;27789;50.840;4.386;2023-05-19T15:23:10;23.50;85.70
39677;DHT22;27789;50.840;4.386;2023-05-19T15:25:36;23.50;85.50
39677;DHT22;27789;50.840;4.386;2023-05-19T15:28:02;23.50;84.70
39677;DHT22;27789;50.840;4.386;2023-05-19T15:30:27;23.60;84.80
39677;DHT22;27789;50.840;4.386;2023-05-19T15:32:53;23.50;85.10
39677;DHT22;27789;50.840;4.386;2023-05-19T15:35:18;23.40;84.70
39677;DHT22;27789;50.840;4.386;2023-05-19T15:37:44;23.40;84.80
39677;DHT22;27789;50.840;4.386;2023-05-19T15:40:09;23.40;85.30
39677;DHT22;27789;50.840;4.386;2023-05-19T15:42:35;23.40;84.60
39677;DHT22;27789;50.840;4.386;2023-05-19T15:45:00;23.30;84.60
39677;DHT22;27789;50.840;4.386;2023-05-19T15:47:26;23.20;85.20
39677;DHT22;27789;50.840;4.386;2023-05-19T15:49:51;23.20;86.00
39677;DHT22;27789;50.840;4.386;2023-05-19T15:52:17;23.30;84.70
39677;DHT22;27789;50.840;4.386;2023-05-19T15:54:42;23.30;84.50
39677;DHT22;27789;50.840;4.386;2023-05-19T15:57:08;23.30;85.00
39677;DHT22;27789;50.840;4.386;2023-05-19T15:59:34;23.20;85.00
39677;DHT22;27789;50.840;4.386;2023-05-19T16:01:59;23.20;84.60
39677;DHT22;27789;50.840;4.386;2023-05-19T16:04:25;23.20;85.30
39677;DHT22;27789;50.840;4.386;2023-05-19T16:06:50;23.10;85.00